sensor_id;sensor_type;location;lat;lon;timestamp;temperature;humidity
9116;DHT22;4593;53.652;10.168;2023-04-24T00:00:55;12.40;89.60
9116;DHT22;4593;53.652;10.168;2023-04-24T00:03:26;12.40;90.00
9116;DHT22;4593;53.652;10.168;2023-04-24T00:05:54;12.40;90.20
9116;DHT22;4593;53.652;10.168;2023-04-24T00:08:19;12.40;90.40
9116;DHT22;4593;53.652;10.168;2023-04-24T00:10:45;12.40;90.30
9116;DHT22;4593;53.652;10.168;2023-04-24T00:13:11;12.30;90.70
9116;DHT22;4593;53.652;10.168;2023-04-24T00:15:36;12.30;91.00
9116;DHT22;4593;53.652;10.168;2023-04-24T00:18:02;12.30;91.50
9116;DHT22;4593;53.652;10.168;2023-04-24T00:20:29;12.20;91.50
9116;DHT22;4593;53.652;10.168;2023-04-24T00:23:01;12.20;91.70
9116;DHT22;4593;53.652;10.168;2023-04-24T00:25:26;12.10;91.70
9116;DHT22;4593;53.652;10.168;2023-04-24T00:27:52;12.10;92.20
9116;DHT22;4593;53.652;10.168;2023-04-24T00:30:18;12.00;92.30
9116;DHT22;4593;53.652;10.168;2023-04-24T00:32:43;12.00;92.50
9116;DHT22;4593;53.652;10.168;2023-04-24T00:35:09;12.00;92.60
9116;DHT22;4593;53.652;10.168;2023-04-24T00:37:36;12.00;92.60
9116;DHT22;4593;53.652;10.168;2023-04-24T00:40:02;11.90;92.70
9116;DHT22;4593;53.652;10.168;2023-04-24T00:42:28;11.90;92.70
9116;DHT22;4593;53.652;10.168;2023-04-24T00:44:54;11.90;93.00
9116;DHT22;4593;53.652;10.168;2023-04-24T00:47:21;11.90;92.90
9116;DHT22;4593;53.652;10.168;2023-04-24T00:49:47;11.90;92.80
9116;DHT22;4593;53.652;10.168;2023-04-24T00:52:13;11.90;92.90
9116;DHT22;4593;53.652;10.168;2023-04-24T00:54:44;11.80;93.20
9116;DHT22;4593;53.652;10.168;2023-04-24T00:57:10;11.90;93.30
9116;DHT22;4593;53.652;10.168;2023-04-24T00:59:36;11.90;92.90
9116;DHT22;4593;53.652;10.168;2023-04-24T01:02:02;11.80;92.80
9116;DHT22;4593;53.652;10.168;2023-04-24T01:04:28;11.80;93.10
9116;DHT22;4593;53.652;10.168;2023-04-24T01:06:54;11.80;93.10
9116;DHT22;4593;53.652;10.168;2023-04-24T01:09:23;11.70;93.40
9116;DHT22;4593;53.652;10.168;2023-04-24T01:11:49;11.80;93.70
9116;DHT22;4593;53.652;10.168;2023-04-24T01:14:15;11.80;93.50
9116;DHT22;4593;53.652;10.168;2023-04-24T01:16:41;11.80;93.10
9116;DHT22;4593;53.652;10.168;2023-04-24T01:19:07;11.90;93.50
9116;DHT22;4593;53.652;10.168;2023-04-24T01:21:36;11.90;93.20
9116;DHT22;4593;53.652;10.168;2023-04-24T01:24:03;12.00;93.20
9116;DHT22;4593;53.652;10.168;2023-04-24T01:26:29;12.00;92.80
9116;DHT22;4593;53.652;10.168;2023-04-24T01:28:55;12.00;92.70
9116;DHT22;4593;53.652;10.168;2023-04-24T01:31:21;12.00;92.80
9116;DHT22;4593;53.652;10.168;2023-04-24T01:33:47;12.00;92.80
9116;DHT22;4593;53.652;10.168;2023-04-24T01:36:13;12.00;92.90
9116;DHT22;4593;53.652;10.168;2023-04-24T01:38:39;12.00;92.50
9116;DHT22;4593;53.652;10.168;2023-04-24T01:41:05;11.80;92.40
9116;DHT22;4593;53.652;10.168;2023-04-24T01:43:31;11.70;92.70
9116;DHT22;4593;53.652;10.168;2023-04-24T01:45:57;11.60;93.10
9116;DHT22;4593;53.652;10.168;2023-04-24T01:48:22;11.40;93.80
9116;DHT22;4593;53.652;10.168;2023-04-24T01:50:48;11.40;94.30
9116;DHT22;4593;53.652;10.168;2023-04-24T01:53:14;11.50;94.40
9116;DHT22;4593;53.652;10.168;2023-04-24T01:55:40;11.60;94.20
9116;DHT22;4593;53.652;10.168;2023-04-24T01:58:06;11.70;93.90
9116;DHT22;4593;53.652;10.168;2023-04-24T02:00:32;11.70;93.80
9116;DHT22;4593;53.652;10.168;2023-04-24T02:02:58;11.80;93.50
9116;DHT22;4593;53.652;10.168;2023-04-24T02:05:24;11.80;93.10
9116;DHT22;4593;53.652;10.168;2023-04-24T02:07:49;11.70;92.60
9116;DHT22;4593;53.652;10.168;2023-04-24T02:10:15;11.60;92.90
9116;DHT22;4593;53.652;10.168;2023-04-24T02:12:40;11.40;93.20
9116;DHT22;4593;53.652;10.168;2023-04-24T02:15:06;11.30;93.50
9116;DHT22;4593;53.652;10.168;2023-04-24T02:17:32;11.20;93.60
9116;DHT22;4593;53.652;10.168;2023-04-24T02:19:58;11.10;93.70
9116;DHT22;4593;53.652;10.168;2023-04-24T02:22:23;11.00;93.90
9116;DHT22;4593;53.652;10.168;2023-04-24T02:24:49;10.90;94.10
9116;DHT22;4593;53.652;10.168;2023-04-24T02:27:15;10.90;94.10
9116;DHT22;4593;53.652;10.168;2023-04-24T02:29:40;10.80;94.30
9116;DHT22;4593;53.652;10.168;2023-04-24T02:32:06;10.70;94.60
9116;DHT22;4593;53.652;10.168;2023-04-24T02:34:32;10.70;95.30
9116;DHT22;4593;53.652;10.168;2023-04-24T02:36:57;10.80;95.80
9116;DHT22;4593;53.652;10.168;2023-04-24T02:39:23;10.90;95.40
9116;DHT22;4593;53.652;10.168;2023-04-24T02:41:49;10.90;95.00
9116;DHT22;4593;53.652;10.168;2023-04-24T02:44:14;10.90;95.20
9116;DHT22;4593;53.652;10.168;2023-04-24T02:46:40;10.80;95.10
9116;DHT22;4593;53.652;10.168;2023-04-24T02:49:07;10.70;95.00
9116;DHT22;4593;53.652;10.168;2023-04-24T02:51:33;10.60;95.30
9116;DHT22;4593;53.652;10.168;2023-04-24T02:53:58;10.60;95.50
9116;DHT22;4593;53.652;10.168;2023-04-24T02:56:24;10.50;95.30
9116;DHT22;4593;53.652;10.168;2023-04-24T02:58:50;10.40;95.70
9116;DHT22;4593;53.652;10.168;2023-04-24T03:01:15;10.40;96.00
9116;DHT22;4593;53.652;10.168;2023-04-24T03:03:41;10.30;96.00
9116;DHT22;4593;53.652;10.168;2023-04-24T03:06:07;10.30;96.20
9116;DHT22;4593;53.652;10.168;2023-04-24T03:08:33;10.20;96.20
9116;DHT22;4593;53.652;10.168;2023-04-24T03:10:59;10.20;96.40
9116;DHT22;4593;53.652;10.168;2023-04-24T03:13:25;10.10;96.40
9116;DHT22;4593;53.652;10.168;2023-04-24T03:15:51;10.10;96.30
9116;DHT22;4593;53.652;10.168;2023-04-24T03:18:17;10.10;96.70
9116;DHT22;4593;53.652;10.168;2023-04-24T03:20:45;10.00;96.80
9116;DHT22;4593;53.652;10.168;2023-04-24T03:23:10;10.00;97.20
9116;DHT22;4593;53.652;10.168;2023-04-24T03:25:36;10.00;97.00
9116;DHT22;4593;53.652;10.168;2023-04-24T03:28:01;10.00;96.80
9116;DHT22;4593;53.652;10.168;2023-04-24T03:30:27;10.00;96.80
9116;DHT22;4593;53.652;10.168;2023-04-24T03:32:53;9.90;96.60
9116;DHT22;4593;53.652;10.168;2023-04-24T03:35:18;9.90;96.80
9116;DHT22;4593;53.652;10.168;2023-04-24T03:37:44;9.90;96.90
9116;DHT22;4593;53.652;10.168;2023-04-24T03:40:10;9.90;97.00
9116;DHT22;4593;53.652;10.168;2023-04-24T03:42:35;9.80;97.20
9116;DHT22;4593;53.652;10.168;2023-04-24T03:45:01;9.90;96.90
9116;DHT22;4593;53.652;10.168;2023-04-24T03:47:27;9.90;96.60
9116;DHT22;4593;53.652;10.168;2023-04-24T03:49:52;9.90;96.60
9116;DHT22;4593;53.652;10.168;2023-04-24T03:52:19;9.90;96.10
9116;DHT22;4593;53.652;10.168;2023-04-24T03:54:45;9.80;96.20
9116;DHT22;4593;53.652;10.168;2023-04-24T03:57:10;9.80;96.10
9116;DHT22;4593;53.652;10.168;2023-04-24T03:59:36;9.80;96.40
9116;DHT22;4593;53.652;10.168;2023-04-24T04:02:02;9.80;96.10
9116;DHT22;4593;53.652;10.168;2023-04-24T04:04:27;9.70;96.10
9116;DHT22;4593;53.652;10.168;2023-04-24T04:06:53;9.80;95.90
9116;DHT22;4593;53.652;10.168;2023-04-24T04:09:19;9.80;95.60
9116;DHT22;4593;53.652;10.168;2023-04-24T04:11:44;9.80;95.60
9116;DHT22;4593;53.652;10.168;2023-04-24T04:14:10;9.80;95.40
9116;DHT22;4593;53.652;10.168;2023-04-24T04:16:36;9.70;95.30
9116;DHT22;4593;53.652;10.168;2023-04-24T04:19:02;9.70;95.30
9116;DHT22;4593;53.652;10.168;2023-04-24T04:21:28;9.60;95.50
9116;DHT22;4593;53.652;10.168;2023-04-24T04:23:54;9.60;95.40
9116;DHT22;4593;53.652;10.168;2023-04-24T04:26:20;9.60;94.90
9116;DHT22;4593;53.652;10.168;2023-04-24T04:28:46;9.60;95.00
9116;DHT22;4593;53.652;10.168;2023-04-24T04:31:13;9.60;95.00
9116;DHT22;4593;53.652;10.168;2023-04-24T04:33:39;9.60;94.90
9116;DHT22;4593;53.652;10.168;2023-04-24T04:36:05;9.60;94.00
9116;DHT22;4593;53.652;10.168;2023-04-24T04:38:30;9.60;94.30
9116;DHT22;4593;53.652;10.168;2023-04-24T04:40:56;9.70;93.90
9116;DHT22;4593;53.652;10.168;2023-04-24T04:43:23;9.70;93.70
9116;DHT22;4593;53.652;10.168;2023-04-24T04:45:49;9.70;93.60
9116;DHT22;4593;53.652;10.168;2023-04-24T04:48:17;9.70;93.20
9116;DHT22;4593;53.652;10.168;2023-04-24T04:50:44;9.70;93.00
9116;DHT22;4593;53.652;10.168;2023-04-24T04:53:10;9.70;93.10
9116;DHT22;4593;53.652;10.168;2023-04-24T04:55:36;9.70;92.70
9116;DHT22;4593;53.652;10.168;2023-04-24T04:58:02;9.80;92.80
9116;DHT22;4593;53.652;10.168;2023-04-24T05:00:28;9.80;92.30
9116;DHT22;4593;53.652;10.168;2023-04-24T05:02:59;9.80;92.20
9116;DHT22;4593;53.652;10.168;2023-04-24T05:05:25;9.90;91.70
9116;DHT22;4593;53.652;10.168;2023-04-24T05:07:51;9.90;91.30
9116;DHT22;4593;53.652;10.168;2023-04-24T05:10:17;10.00;91.20
9116;DHT22;4593;53.652;10.168;2023-04-24T05:12:42;10.00;91.30
9116;DHT22;4593;53.652;10.168;2023-04-24T05:15:08;10.10;90.90
9116;DHT22;4593;53.652;10.168;2023-04-24T05:17:34;10.20;90.30
9116;DHT22;4593;53.652;10.168;2023-04-24T05:20:00;10.40;89.80
9116;DHT22;4593;53.652;10.168;2023-04-24T05:22:26;10.50;89.50
9116;DHT22;4593;53.652;10.168;2023-04-24T05:24:51;10.60;88.90
9116;DHT22;4593;53.652;10.168;2023-04-24T05:27:17;10.50;88.40
9116;DHT22;4593;53.652;10.168;2023-04-24T05:29:43;10.50;87.60
9116;DHT22;4593;53.652;10.168;2023-04-24T05:32:09;10.50;86.20
9116;DHT22;4593;53.652;10.168;2023-04-24T05:34:35;10.60;86.20
9116;DHT22;4593;53.652;10.168;2023-04-24T05:37:00;10.60;85.60
9116;DHT22;4593;53.652;10.168;2023-04-24T05:39:26;10.70;85.20
9116;DHT22;4593;53.652;10.168;2023-04-24T05:41:52;10.70;85.00
9116;DHT22;4593;53.652;10.168;2023-04-24T05:44:18;10.80;83.10
9116;DHT22;4593;53.652;10.168;2023-04-24T05:46:43;10.80;83.20
9116;DHT22;4593;53.652;10.168;2023-04-24T05:49:09;10.80;83.30
9116;DHT22;4593;53.652;10.168;2023-04-24T05:51:35;10.90;82.50
9116;DHT22;4593;53.652;10.168;2023-04-24T05:54:01;10.90;82.40
9116;DHT22;4593;53.652;10.168;2023-04-24T05:56:28;11.00;82.40
9116;DHT22;4593;53.652;10.168;2023-04-24T05:58:54;11.00;82.40
9116;DHT22;4593;53.652;10.168;2023-04-24T06:01:19;11.00;81.20
9116;DHT22;4593;53.652;10.168;2023-04-24T06:03:45;11.10;80.30
9116;DHT22;4593;53.652;10.168;2023-04-24T06:06:11;11.10;80.40
9116;DHT22;4593;53.652;10.168;2023-04-24T06:08:36;11.20;80.00
9116;DHT22;4593;53.652;10.168;2023-04-24T06:11:02;11.30;79.80
9116;DHT22;4593;53.652;10.168;2023-04-24T06:13:28;11.30;79.40
9116;DHT22;4593;53.652;10.168;2023-04-24T06:15:53;11.30;79.50
9116;DHT22;4593;53.652;10.168;2023-04-24T06:18:19;11.40;79.60
9116;DHT22;4593;53.652;10.168;2023-04-24T06:20:47;11.50;79.10
9116;DHT22;4593;53.652;10.168;2023-04-24T06:23:12;11.60;78.70
9116;DHT22;4593;53.652;10.168;2023-04-24T06:25:38;11.60;77.80
9116;DHT22;4593;53.652;10.168;2023-04-24T06:28:04;11.70;78.00
9116;DHT22;4593;53.652;10.168;2023-04-24T06:30:30;11.80;78.10
9116;DHT22;4593;53.652;10.168;2023-04-24T06:32:56;11.90;77.90
9116;DHT22;4593;53.652;10.168;2023-04-24T06:35:21;12.00;77.10
9116;DHT22;4593;53.652;10.168;2023-04-24T06:37:47;12.00;76.00
9116;DHT22;4593;53.652;10.168;2023-04-24T06:40:13;12.10;75.70
9116;DHT22;4593;53.652;10.168;2023-04-24T06:42:39;12.20;75.10
9116;DHT22;4593;53.652;10.168;2023-04-24T06:45:05;12.30;74.50
9116;DHT22;4593;53.652;10.168;2023-04-24T06:47:31;12.40;74.20
9116;DHT22;4593;53.652;10.168;2023-04-24T06:49:58;12.50;73.90
9116;DHT22;4593;53.652;10.168;2023-04-24T06:52:24;12.50;73.10
9116;DHT22;4593;53.652;10.168;2023-04-24T06:54:50;12.60;72.00
9116;DHT22;4593;53.652;10.168;2023-04-24T06:57:16;12.70;71.90
9116;DHT22;4593;53.652;10.168;2023-04-24T06:59:42;12.90;71.90
9116;DHT22;4593;53.652;10.168;2023-04-24T07:02:07;13.00;70.20
9116;DHT22;4593;53.652;10.168;2023-04-24T07:04:33;13.20;70.60
9116;DHT22;4593;53.652;10.168;2023-04-24T07:06:59;13.50;69.70
9116;DHT22;4593;53.652;10.168;2023-04-24T07:09:25;13.90;68.00
9116;DHT22;4593;53.652;10.168;2023-04-24T07:11:54;14.40;68.60
9116;DHT22;4593;53.652;10.168;2023-04-24T07:14:23;14.90;67.20
9116;DHT22;4593;53.652;10.168;2023-04-24T07:16:48;15.10;64.80
9116;DHT22;4593;53.652;10.168;2023-04-24T07:19:15;15.20;65.70
9116;DHT22;4593;53.652;10.168;2023-04-24T07:21:41;15.10;64.10
9116;DHT22;4593;53.652;10.168;2023-04-24T07:24:07;14.80;64.10
9116;DHT22;4593;53.652;10.168;2023-04-24T07:26:37;14.60;62.90
9116;DHT22;4593;53.652;10.168;2023-04-24T07:29:02;14.80;64.10
9116;DHT22;4593;53.652;10.168;2023-04-24T07:31:28;15.20;64.30
9116;DHT22;4593;53.652;10.168;2023-04-24T07:33:54;15.40;62.30
9116;DHT22;4593;53.652;10.168;2023-04-24T07:36:23;15.70;63.10
9116;DHT22;4593;53.652;10.168;2023-04-24T07:38:49;15.80;60.60
9116;DHT22;4593;53.652;10.168;2023-04-24T07:41:15;15.80;60.90
9116;DHT22;4593;53.652;10.168;2023-04-24T07:43:41;16.00;61.00
9116;DHT22;4593;53.652;10.168;2023-04-24T07:46:08;15.90;60.20
9116;DHT22;4593;53.652;10.168;2023-04-24T07:48:35;15.90;60.30
9116;DHT22;4593;53.652;10.168;2023-04-24T07:51:00;15.80;60.50
9116;DHT22;4593;53.652;10.168;2023-04-24T07:53:26;15.80;60.60
9116;DHT22;4593;53.652;10.168;2023-04-24T07:55:53;15.60;61.20
9116;DHT22;4593;53.652;10.168;2023-04-24T07:58:19;15.30;60.20
9116;DHT22;4593;53.652;10.168;2023-04-24T08:00:45;15.30;62.20
9116;DHT22;4593;53.652;10.168;2023-04-24T08:03:10;15.70;62.50
9116;DHT22;4593;53.652;10.168;2023-04-24T08:05:37;15.60;60.80
9116;DHT22;4593;53.652;10.168;2023-04-24T08:08:03;15.60;60.70
9116;DHT22;4593;53.652;10.168;2023-04-24T08:10:29;15.70;60.90
9116;DHT22;4593;53.652;10.168;2023-04-24T08:12:55;16.10;60.40
9116;DHT22;4593;53.652;10.168;2023-04-24T08:15:21;16.50;58.30
9116;DHT22;4593;53.652;10.168;2023-04-24T08:17:46;17.00;57.50
9116;DHT22;4593;53.652;10.168;2023-04-24T08:20:12;17.20;56.90
9116;DHT22;4593;53.652;10.168;2023-04-24T08:22:41;17.10;55.10
9116;DHT22;4593;53.652;10.168;2023-04-24T08:25:08;17.00;55.80
9116;DHT22;4593;53.652;10.168;2023-04-24T08:27:33;16.80;55.60
9116;DHT22;4593;53.652;10.168;2023-04-24T08:29:59;16.60;56.80
9116;DHT22;4593;53.652;10.168;2023-04-24T08:32:26;16.50;57.80
9116;DHT22;4593;53.652;10.168;2023-04-24T08:34:55;16.40;57.70
9116;DHT22;4593;53.652;10.168;2023-04-24T08:37:22;16.30;57.90
9116;DHT22;4593;53.652;10.168;2023-04-24T08:39:49;16.10;57.70
9116;DHT22;4593;53.652;10.168;2023-04-24T08:42:16;15.90;57.50
9116;DHT22;4593;53.652;10.168;2023-04-24T08:44:42;15.90;58.60
9116;DHT22;4593;53.652;10.168;2023-04-24T08:47:08;15.90;58.50
9116;DHT22;4593;53.652;10.168;2023-04-24T08:49:36;16.00;59.50
9116;DHT22;4593;53.652;10.168;2023-04-24T08:52:02;16.40;58.30
9116;DHT22;4593;53.652;10.168;2023-04-24T08:54:28;16.60;56.80
9116;DHT22;4593;53.652;10.168;2023-04-24T08:56:59;16.60;55.90
9116;DHT22;4593;53.652;10.168;2023-04-24T08:59:29;16.20;55.20
9116;DHT22;4593;53.652;10.168;2023-04-24T09:01:56;16.10;56.90
9116;DHT22;4593;53.652;10.168;2023-04-24T09:04:22;16.10;57.00
9116;DHT22;4593;53.652;10.168;2023-04-24T09:06:56;16.30;57.20
9116;DHT22;4593;53.652;10.168;2023-04-24T09:09:23;16.50;56.60
9116;DHT22;4593;53.652;10.168;2023-04-24T09:11:50;16.70;56.00
9116;DHT22;4593;53.652;10.168;2023-04-24T09:14:17;17.10;55.20
9116;DHT22;4593;53.652;10.168;2023-04-24T09:16:43;17.60;54.80
9116;DHT22;4593;53.652;10.168;2023-04-24T09:19:09;17.90;53.00
9116;DHT22;4593;53.652;10.168;2023-04-24T09:21:35;17.80;51.90
9116;DHT22;4593;53.652;10.168;2023-04-24T09:24:06;17.70;52.50
9116;DHT22;4593;53.652;10.168;2023-04-24T09:26:36;17.90;52.90
9116;DHT22;4593;53.652;10.168;2023-04-24T09:29:03;18.30;52.80
9116;DHT22;4593;53.652;10.168;2023-04-24T09:31:30;18.20;50.50
9116;DHT22;4593;53.652;10.168;2023-04-24T09:36:47;18.10;51.60
9116;DHT22;4593;53.652;10.168;2023-04-24T09:39:14;18.10;51.50
9116;DHT22;4593;53.652;10.168;2023-04-24T09:41:51;17.90;50.50
9116;DHT22;4593;53.652;10.168;2023-04-24T09:44:19;17.40;51.90
9116;DHT22;4593;53.652;10.168;2023-04-24T09:47:09;16.90;52.80
9116;DHT22;4593;53.652;10.168;2023-04-24T09:49:35;16.70;54.30
9116;DHT22;4593;53.652;10.168;2023-04-24T09:52:05;16.50;55.00
9116;DHT22;4593;53.652;10.168;2023-04-24T09:54:30;16.70;54.70
9116;DHT22;4593;53.652;10.168;2023-04-24T09:56:56;17.00;54.80
9116;DHT22;4593;53.652;10.168;2023-04-24T09:59:22;17.30;53.60
9116;DHT22;4593;53.652;10.168;2023-04-24T10:01:48;17.50;53.50
9116;DHT22;4593;53.652;10.168;2023-04-24T10:06:44;17.50;52.30
9116;DHT22;4593;53.652;10.168;2023-04-24T10:09:10;17.20;53.60
9116;DHT22;4593;53.652;10.168;2023-04-24T10:11:42;17.00;53.60
9116;DHT22;4593;53.652;10.168;2023-04-24T10:14:10;16.80;55.20
9116;DHT22;4593;53.652;10.168;2023-04-24T10:16:38;16.90;54.70
9116;DHT22;4593;53.652;10.168;2023-04-24T10:19:04;16.90;54.50
9116;DHT22;4593;53.652;10.168;2023-04-24T10:21:31;16.80;53.60
9116;DHT22;4593;53.652;10.168;2023-04-24T10:23:57;16.60;55.10
9116;DHT22;4593;53.652;10.168;2023-04-24T10:26:26;16.50;55.90
9116;DHT22;4593;53.652;10.168;2023-04-24T10:28:54;16.80;55.40
9116;DHT22;4593;53.652;10.168;2023-04-24T10:31:22;17.00;54.80
9116;DHT22;4593;53.652;10.168;2023-04-24T10:33:50;17.40;54.30
9116;DHT22;4593;53.652;10.168;2023-04-24T10:36:17;17.50;53.10
9116;DHT22;4593;53.652;10.168;2023-04-24T10:38:45;17.30;52.90
9116;DHT22;4593;53.652;10.168;2023-04-24T10:41:13;16.60;54.30
9116;DHT22;4593;53.652;10.168;2023-04-24T10:43:45;16.10;56.40
9116;DHT22;4593;53.652;10.168;2023-04-24T10:46:19;16.00;57.80
9116;DHT22;4593;53.652;10.168;2023-04-24T10:48:52;16.40;57.10
9116;DHT22;4593;53.652;10.168;2023-04-24T10:51:26;16.70;55.70
9116;DHT22;4593;53.652;10.168;2023-04-24T10:56:53;17.00;54.80
9116;DHT22;4593;53.652;10.168;2023-04-24T10:59:29;17.00;54.10
9116;DHT22;4593;53.652;10.168;2023-04-24T11:02:00;16.70;54.90
9116;DHT22;4593;53.652;10.168;2023-04-24T11:04:30;16.40;55.80
9116;DHT22;4593;53.652;10.168;2023-04-24T11:06:57;16.10;56.50
9116;DHT22;4593;53.652;10.168;2023-04-24T11:09:26;15.90;57.20
9116;DHT22;4593;53.652;10.168;2023-04-24T11:12:06;15.70;58.20
9116;DHT22;4593;53.652;10.168;2023-04-24T11:17:34;15.30;59.80
9116;DHT22;4593;53.652;10.168;2023-04-24T11:20:04;15.40;59.80
9116;DHT22;4593;53.652;10.168;2023-04-24T11:22:34;15.60;59.60
9116;DHT22;4593;53.652;10.168;2023-04-24T11:25:02;15.80;59.00
9116;DHT22;4593;53.652;10.168;2023-04-24T11:27:31;16.30;57.50
9116;DHT22;4593;53.652;10.168;2023-04-24T11:30:02;17.00;56.20
9116;DHT22;4593;53.652;10.168;2023-04-24T11:32:38;17.40;53.60
9116;DHT22;4593;53.652;10.168;2023-04-24T11:35:14;17.50;54.00
9116;DHT22;4593;53.652;10.168;2023-04-24T11:37:47;17.80;51.80
9116;DHT22;4593;53.652;10.168;2023-04-24T11:40:17;17.90;50.90
9116;DHT22;4593;53.652;10.168;2023-04-24T11:42:46;17.90;51.50
9116;DHT22;4593;53.652;10.168;2023-04-24T11:45:14;18.10;50.10
9116;DHT22;4593;53.652;10.168;2023-04-24T11:47:40;18.30;50.10
9116;DHT22;4593;53.652;10.168;2023-04-24T11:50:08;18.40;49.90
9116;DHT22;4593;53.652;10.168;2023-04-24T11:52:39;18.20;49.80
9116;DHT22;4593;53.652;10.168;2023-04-24T11:57:52;17.30;52.00
9116;DHT22;4593;53.652;10.168;2023-04-24T12:00:21;16.70;51.50
9116;DHT22;4593;53.652;10.168;2023-04-24T12:02:47;16.40;52.60
9116;DHT22;4593;53.652;10.168;2023-04-24T12:05:20;16.40;53.60
9116;DHT22;4593;53.652;10.168;2023-04-24T12:07:46;16.90;54.20
9116;DHT22;4593;53.652;10.168;2023-04-24T12:10:12;17.60;52.40
9116;DHT22;4593;53.652;10.168;2023-04-24T12:12:37;17.80;51.00
9116;DHT22;4593;53.652;10.168;2023-04-24T12:15:08;17.80;51.20
9116;DHT22;4593;53.652;10.168;2023-04-24T12:17:35;17.70;50.60
9116;DHT22;4593;53.652;10.168;2023-04-24T12:20:07;17.50;50.10
9116;DHT22;4593;53.652;10.168;2023-04-24T12:25:20;17.30;51.00
9116;DHT22;4593;53.652;10.168;2023-04-24T12:27:51;17.40;49.50
9116;DHT22;4593;53.652;10.168;2023-04-24T12:30:17;17.30;50.10
9116;DHT22;4593;53.652;10.168;2023-04-24T12:32:49;17.30;49.60
9116;DHT22;4593;53.652;10.168;2023-04-24T12:35:22;17.60;49.80
9116;DHT22;4593;53.652;10.168;2023-04-24T12:37:49;18.10;48.80
9116;DHT22;4593;53.652;10.168;2023-04-24T12:40:16;18.20;48.00
9116;DHT22;4593;53.652;10.168;2023-04-24T12:42:51;18.30;47.70
9116;DHT22;4593;53.652;10.168;2023-04-24T12:45:18;18.00;46.70
9116;DHT22;4593;53.652;10.168;2023-04-24T12:47:45;17.80;47.50
9116;DHT22;4593;53.652;10.168;2023-04-24T12:50:13;17.70;48.90
9116;DHT22;4593;53.652;10.168;2023-04-24T12:52:40;17.60;48.20
9116;DHT22;4593;53.652;10.168;2023-04-24T12:55:06;17.80;48.30
9116;DHT22;4593;53.652;10.168;2023-04-24T12:57:37;17.80;48.50
9116;DHT22;4593;53.652;10.168;2023-04-24T13:00:03;17.90;49.00
9116;DHT22;4593;53.652;10.168;2023-04-24T13:02:30;17.70;49.70
9116;DHT22;4593;53.652;10.168;2023-04-24T13:04:59;17.60;50.80
9116;DHT22;4593;53.652;10.168;2023-04-24T13:07:26;17.60;50.30
9116;DHT22;4593;53.652;10.168;2023-04-24T13:09:52;17.50;50.90
9116;DHT22;4593;53.652;10.168;2023-04-24T13:12:18;17.10;50.60
9116;DHT22;4593;53.652;10.168;2023-04-24T13:14:44;16.70;51.40
9116;DHT22;4593;53.652;10.168;2023-04-24T13:17:10;16.30;52.10
9116;DHT22;4593;53.652;10.168;2023-04-24T13:19:39;15.90;52.90
9116;DHT22;4593;53.652;10.168;2023-04-24T13:22:05;15.70;54.70
9116;DHT22;4593;53.652;10.168;2023-04-24T13:24:32;15.50;54.90
9116;DHT22;4593;53.652;10.168;2023-04-24T13:26:59;15.30;56.00
9116;DHT22;4593;53.652;10.168;2023-04-24T13:29:25;15.20;56.20
9116;DHT22;4593;53.652;10.168;2023-04-24T13:31:51;15.10;58.50
9116;DHT22;4593;53.652;10.168;2023-04-24T13:34:19;14.90;62.20
9116;DHT22;4593;53.652;10.168;2023-04-24T13:36:45;14.80;65.00
9116;DHT22;4593;53.652;10.168;2023-04-24T13:39:11;14.60;66.10
9116;DHT22;4593;53.652;10.168;2023-04-24T13:41:37;14.60;68.10
9116;DHT22;4593;53.652;10.168;2023-04-24T13:44:04;14.70;68.70
9116;DHT22;4593;53.652;10.168;2023-04-24T13:46:30;14.70;67.90
9116;DHT22;4593;53.652;10.168;2023-04-24T13:48:56;14.90;67.80
9116;DHT22;4593;53.652;10.168;2023-04-24T13:51:23;14.80;67.10
9116;DHT22;4593;53.652;10.168;2023-04-24T13:53:49;14.90;67.70
9116;DHT22;4593;53.652;10.168;2023-04-24T13:56:14;14.90;67.80
9116;DHT22;4593;53.652;10.168;2023-04-24T13:58:40;14.90;67.10
9116;DHT22;4593;53.652;10.168;2023-04-24T14:01:06;14.80;67.00
9116;DHT22;4593;53.652;10.168;2023-04-24T14:03:33;14.80;67.40
9116;DHT22;4593;53.652;10.168;2023-04-24T14:05:59;14.70;66.80
9116;DHT22;4593;53.652;10.168;2023-04-24T14:08:25;14.70;66.30
9116;DHT22;4593;53.652;10.168;2023-04-24T14:10:51;14.70;66.30
9116;DHT22;4593;53.652;10.168;2023-04-24T14:13:16;14.60;64.50
9116;DHT22;4593;53.652;10.168;2023-04-24T14:15:42;14.50;64.50
9116;DHT22;4593;53.652;10.168;2023-04-24T14:18:08;14.40;64.90
9116;DHT22;4593;53.652;10.168;2023-04-24T14:20:34;14.50;65.70
9116;DHT22;4593;53.652;10.168;2023-04-24T14:22:59;14.70;65.10
9116;DHT22;4593;53.652;10.168;2023-04-24T14:25:26;15.00;64.40
9116;DHT22;4593;53.652;10.168;2023-04-24T14:27:51;15.20;64.10
9116;DHT22;4593;53.652;10.168;2023-04-24T14:30:18;15.30;64.30
9116;DHT22;4593;53.652;10.168;2023-04-24T14:32:43;15.40;63.90
9116;DHT22;4593;53.652;10.168;2023-04-24T14:35:09;15.30;63.40
9116;DHT22;4593;53.652;10.168;2023-04-24T14:37:35;15.20;63.40
9116;DHT22;4593;53.652;10.168;2023-04-24T14:40:02;15.20;63.00
9116;DHT22;4593;53.652;10.168;2023-04-24T14:42:28;15.20;64.10
9116;DHT22;4593;53.652;10.168;2023-04-24T14:44:54;15.20;62.40
9116;DHT22;4593;53.652;10.168;2023-04-24T14:47:20;15.30;62.90
9116;DHT22;4593;53.652;10.168;2023-04-24T14:49:48;15.30;62.80
9116;DHT22;4593;53.652;10.168;2023-04-24T14:52:14;15.20;62.30
9116;DHT22;4593;53.652;10.168;2023-04-24T14:54:41;15.10;62.00
9116;DHT22;4593;53.652;10.168;2023-04-24T14:57:07;15.00;62.40
9116;DHT22;4593;53.652;10.168;2023-04-24T14:59:33;14.80;62.30
9116;DHT22;4593;53.652;10.168;2023-04-24T15:01:59;14.60;62.40
9116;DHT22;4593;53.652;10.168;2023-04-24T15:04:25;14.40;63.70
9116;DHT22;4593;53.652;10.168;2023-04-24T15:06:52;13.90;65.40
9116;DHT22;4593;53.652;10.168;2023-04-24T15:09:19;13.60;68.80
9116;DHT22;4593;53.652;10.168;2023-04-24T15:11:45;13.20;72.60
9116;DHT22;4593;53.652;10.168;2023-04-24T15:14:11;12.80;75.50
9116;DHT22;4593;53.652;10.168;2023-04-24T15:16:37;12.60;77.30
9116;DHT22;4593;53.652;10.168;2023-04-24T15:19:02;12.40;78.90
9116;DHT22;4593;53.652;10.168;2023-04-24T15:21:28;12.30;79.10
9116;DHT22;4593;53.652;10.168;2023-04-24T15:23:54;12.30;81.00
9116;DHT22;4593;53.652;10.168;2023-04-24T15:26:20;12.30;80.90
9116;DHT22;4593;53.652;10.168;2023-04-24T15:28:46;12.20;82.20
9116;DHT22;4593;53.652;10.168;2023-04-24T15:31:12;12.10;82.80
9116;DHT22;4593;53.652;10.168;2023-04-24T15:33:38;12.00;83.60
9116;DHT22;4593;53.652;10.168;2023-04-24T15:36:04;12.00;83.40
9116;DHT22;4593;53.652;10.168;2023-04-24T15:38:30;12.10;83.60
9116;DHT22;4593;53.652;10.168;2023-04-24T15:40:55;12.20;83.00
9116;DHT22;4593;53.652;10.168;2023-04-24T15:43:21;12.20;81.70
9116;DHT22;4593;53.652;10.168;2023-04-24T15:45:49;12.10;82.80
9116;DHT22;4593;53.652;10.168;2023-04-24T15:48:15;12.10;82.80
9116;DHT22;4593;53.652;10.168;2023-04-24T15:50:41;12.00;82.70
9116;DHT22;4593;53.652;10.168;2023-04-24T15:53:06;11.70;83.00
9116;DHT22;4593;53.652;10.168;2023-04-24T15:55:32;11.20;85.00
9116;DHT22;4593;53.652;10.168;2023-04-24T15:57:58;10.70;86.10
9116;DHT22;4593;53.652;10.168;2023-04-24T16:00:24;10.20;88.30